createdAt,value
2019-06-27T00:01:57.031Z,9.98
2019-06-27T00:04:25.499Z,7.70
2019-06-27T00:06:53.987Z,9.67
2019-06-27T00:09:23.158Z,6.72
2019-06-27T00:11:51.624Z,8.37
2019-06-27T00:14:20.336Z,9.70
2019-06-27T00:16:49.020Z,8.28
2019-06-27T00:19:17.719Z,9.73
2019-06-27T00:21:46.163Z,7.10
2019-06-27T00:24:14.859Z,7.35
2019-06-27T00:26:56.133Z,10.10
2019-06-27T00:29:13.467Z,7.87
2019-06-27T00:31:41.894Z,8.70
2019-06-27T00:34:10.342Z,9.70
2019-06-27T00:36:38.782Z,7.12
2019-06-27T00:39:07.270Z,9.33
2019-06-27T00:41:35.698Z,10.90
2019-06-27T00:44:04.142Z,9.98
2019-06-27T00:46:32.584Z,10.15
2019-06-27T00:49:01.017Z,10.45
2019-06-27T00:51:29.470Z,11.08
2019-06-27T00:53:57.894Z,8.63
2019-06-27T00:56:26.338Z,11.63
2019-06-27T00:58:54.771Z,9.55
2019-06-27T01:01:23.220Z,10.40
2019-06-27T01:03:51.647Z,8.98
2019-06-27T01:06:20.087Z,7.80
2019-06-27T01:08:48.527Z,13.00
2019-06-27T01:11:16.975Z,11.87
2019-06-27T01:13:45.422Z,9.40
2019-06-27T01:16:13.982Z,9.23
2019-06-27T01:18:42.460Z,7.42
2019-06-27T01:21:10.907Z,9.27
2019-06-27T01:23:39.347Z,7.72
2019-06-27T01:26:07.807Z,11.10
2019-06-27T01:28:36.319Z,6.40
2019-06-27T01:31:04.767Z,10.00
2019-06-27T01:33:34.102Z,11.40
2019-06-27T01:36:02.578Z,10.32
2019-06-27T01:38:31.064Z,10.33
2019-06-27T01:40:59.780Z,10.23
2019-06-27T01:43:28.203Z,7.85
2019-06-27T01:45:58.515Z,10.72
2019-06-27T01:48:26.951Z,9.50
2019-06-27T01:50:55.387Z,10.40
2019-06-27T01:53:23.863Z,7.25
2019-06-27T01:55:52.306Z,9.10
2019-06-27T01:58:20.740Z,8.38
2019-06-27T02:00:49.191Z,11.20
2019-06-27T02:03:17.691Z,10.68
2019-06-27T02:05:46.380Z,10.58
2019-06-27T02:08:14.827Z,9.55
2019-06-27T02:10:43.334Z,10.70
2019-06-27T02:13:11.779Z,11.10
2019-06-27T02:15:44.866Z,9.43
2019-06-27T02:18:27.129Z,6.53
2019-06-27T02:20:55.670Z,8.75
2019-06-27T02:23:24.112Z,9.80
2019-06-27T02:25:52.552Z,12.28
2019-06-27T02:28:21.062Z,9.90
2019-06-27T02:30:49.509Z,9.95
2019-06-27T02:33:18.014Z,9.23
2019-06-27T02:35:46.712Z,13.68
2019-06-27T02:38:15.162Z,10.68
2019-06-27T02:40:43.858Z,8.35
2019-06-27T02:43:12.631Z,9.78
2019-06-27T02:45:41.060Z,8.53
2019-06-27T02:48:09.512Z,9.83
2019-06-27T02:50:38.223Z,11.22
2019-06-27T02:53:06.673Z,10.03
2019-06-27T02:55:35.111Z,10.05
2019-06-27T02:58:26.876Z,6.00
2019-06-27T03:00:33.771Z,9.63
2019-06-27T03:03:02.216Z,7.25
2019-06-27T03:05:30.667Z,10.15
2019-06-27T03:07:59.110Z,6.40
2019-06-27T03:10:27.541Z,9.33
2019-06-27T03:12:55.980Z,7.85
2019-06-27T03:15:24.424Z,11.12
2019-06-27T03:17:52.853Z,9.53
2019-06-27T03:20:21.305Z,8.20
2019-06-27T03:22:49.813Z,5.92
2019-06-27T03:25:18.264Z,6.37
2019-06-27T03:27:46.696Z,6.17
2019-06-27T03:30:15.738Z,8.53
2019-06-27T03:32:44.262Z,10.18
2019-06-27T03:35:12.784Z,6.87
2019-06-27T03:37:41.280Z,12.30
2019-06-27T03:40:10.268Z,9.50
2019-06-27T03:42:38.692Z,6.80
2019-06-27T03:45:07.379Z,8.93
2019-06-27T03:47:35.819Z,6.87
2019-06-27T03:50:05.319Z,7.60
2019-06-27T03:52:33.824Z,10.28
2019-06-27T03:55:02.271Z,9.33
2019-06-27T03:57:30.710Z,10.05
2019-06-27T03:59:59.147Z,7.55
2019-06-27T04:02:27.587Z,8.57
2019-06-27T04:04:56.668Z,5.30
2019-06-27T04:07:25.104Z,9.23
2019-06-27T04:09:53.548Z,7.85
2019-06-27T04:12:21.999Z,8.45
2019-06-27T04:14:50.444Z,8.18
2019-06-27T04:17:18.951Z,10.28
2019-06-27T04:19:47.412Z,8.98
2019-06-27T04:22:17.519Z,12.10
2019-06-27T04:24:46.077Z,9.80
2019-06-27T04:27:14.539Z,8.65
2019-06-27T04:29:43.042Z,6.75
2019-06-27T04:32:11.557Z,8.63
2019-06-27T04:34:40.086Z,7.03
2019-06-27T04:37:08.566Z,8.08
2019-06-27T04:39:37.048Z,9.75
2019-06-27T04:42:05.503Z,7.45
2019-06-27T04:44:34.012Z,7.17
2019-06-27T04:47:02.457Z,8.80
2019-06-27T04:49:30.900Z,10.67
2019-06-27T04:51:59.424Z,9.25
2019-06-27T04:54:27.943Z,8.28
2019-06-27T04:56:56.468Z,6.08
2019-06-27T04:59:24.966Z,8.60
2019-06-27T05:01:53.493Z,11.00
2019-06-27T05:04:21.995Z,8.65
2019-06-27T05:06:50.460Z,8.18
2019-06-27T05:09:18.899Z,8.90
2019-06-27T05:11:47.352Z,8.70
2019-06-27T05:14:15.809Z,9.23
2019-06-27T05:16:44.275Z,8.37
2019-06-27T05:19:12.707Z,12.07
2019-06-27T05:21:41.163Z,10.05
2019-06-27T05:24:09.684Z,9.63
2019-06-27T05:26:38.401Z,7.20
2019-06-27T05:29:06.895Z,11.68
2019-06-27T05:31:35.489Z,11.15
2019-06-27T05:34:04.179Z,8.40
2019-06-27T05:36:32.888Z,12.65
2019-06-27T05:39:01.343Z,11.45
2019-06-27T05:41:30.103Z,10.33
2019-06-27T05:43:58.806Z,9.30
2019-06-27T05:46:27.239Z,11.38
2019-06-27T05:48:55.699Z,11.15
2019-06-27T05:51:24.135Z,7.92
2019-06-27T05:53:52.581Z,8.85
2019-06-27T05:56:21.012Z,9.73
2019-06-27T05:58:51.958Z,8.78
2019-06-27T06:01:19.907Z,8.60
2019-06-27T06:03:48.395Z,8.50
2019-06-27T06:06:16.843Z,12.33
2019-06-27T06:08:45.552Z,9.15
2019-06-27T06:11:14.049Z,8.50
2019-06-27T06:13:42.753Z,9.98
2019-06-27T06:16:11.196Z,8.48
2019-06-27T06:18:39.635Z,10.68
2019-06-27T06:21:08.312Z,10.80
2019-06-27T06:23:36.848Z,9.93
2019-06-27T06:26:05.364Z,8.08
2019-06-27T06:28:33.869Z,9.90
2019-06-27T06:31:02.415Z,8.55
2019-06-27T06:33:31.137Z,10.38
2019-06-27T06:35:59.581Z,8.80
2019-06-27T06:38:28.036Z,10.50
2019-06-27T06:40:56.743Z,9.28
2019-06-27T06:43:25.186Z,10.00
2019-06-27T06:45:53.626Z,12.13
2019-06-27T06:48:22.409Z,9.27
2019-06-27T06:50:50.845Z,10.90
2019-06-27T06:53:19.547Z,9.03
2019-06-27T06:55:48.236Z,11.93
2019-06-27T06:58:16.685Z,7.67
2019-06-27T07:01:00.445Z,8.03
2019-06-27T07:03:15.475Z,12.50
2019-06-27T07:05:44.246Z,9.93
2019-06-27T07:08:12.687Z,9.80
2019-06-27T07:10:41.380Z,7.97
2019-06-27T07:13:09.811Z,9.23
2019-06-27T07:15:38.256Z,10.00
2019-06-27T07:18:06.691Z,8.48
2019-06-27T07:20:35.143Z,11.48
2019-06-27T07:23:03.571Z,9.83
2019-06-27T07:25:32.495Z,8.65
2019-06-27T07:28:01.295Z,9.73
2019-06-27T07:30:29.785Z,7.25
2019-06-27T07:32:58.478Z,10.78
2019-06-27T07:35:26.917Z,10.72
2019-06-27T07:37:55.593Z,7.15
2019-06-27T07:40:24.171Z,9.33
2019-06-27T07:42:52.605Z,8.90
2019-06-27T07:45:21.059Z,6.90
2019-06-27T07:47:49.498Z,10.32
2019-06-27T07:50:18.186Z,6.40
2019-06-27T07:52:46.640Z,11.60
2019-06-27T07:55:15.158Z,9.78
2019-06-27T07:57:43.588Z,7.92
2019-06-27T08:00:12.971Z,7.03
2019-06-27T08:02:41.415Z,10.55
2019-06-27T08:05:10.701Z,8.60
2019-06-27T08:07:39.144Z,7.40
2019-06-27T08:10:08.125Z,6.50
2019-06-27T08:12:36.555Z,7.67
2019-06-27T08:15:07.742Z,9.40
2019-06-27T08:17:36.173Z,9.18
2019-06-27T08:20:07.102Z,9.08
2019-06-27T08:22:35.542Z,8.58
2019-06-27T08:25:05.680Z,8.03
2019-06-27T08:27:34.113Z,8.00
2019-06-27T08:30:02.731Z,9.13
2019-06-27T08:32:31.426Z,5.77
2019-06-27T08:34:59.870Z,6.33
2019-06-27T08:37:28.325Z,6.08
2019-06-27T08:39:57.007Z,6.10
2019-06-27T08:42:25.470Z,4.87
2019-06-27T08:44:53.951Z,6.40
2019-06-27T08:47:22.470Z,6.75
2019-06-27T08:49:50.901Z,3.10
2019-06-27T08:52:19.609Z,5.97
2019-06-27T08:54:48.039Z,4.08
2019-06-27T08:57:16.483Z,6.35
2019-06-27T08:59:45.807Z,6.50
2019-06-27T09:02:14.419Z,6.00
2019-06-27T09:04:43.107Z,4.53
2019-06-27T09:07:11.555Z,7.47
2019-06-27T09:09:40.259Z,5.03
2019-06-27T09:12:08.714Z,5.28
2019-06-27T09:14:37.404Z,5.20
2019-06-27T09:17:05.846Z,4.30
2019-06-27T09:19:34.270Z,5.60
2019-06-27T09:22:02.722Z,3.05
2019-06-27T09:24:31.231Z,7.40
2019-06-27T09:26:59.685Z,5.87
2019-06-27T09:29:28.191Z,6.60
2019-06-27T09:31:56.628Z,3.83
2019-06-27T09:34:25.090Z,3.40
2019-06-27T09:36:53.613Z,4.05
2019-06-27T09:39:22.354Z,4.05
2019-06-27T09:41:50.793Z,3.70
2019-06-27T09:44:19.298Z,6.40
2019-06-27T09:46:47.744Z,3.90
2019-06-27T09:49:16.184Z,2.60
2019-06-27T09:51:44.628Z,3.42
2019-06-27T09:54:13.130Z,3.22
2019-06-27T09:56:41.571Z,4.03
2019-06-27T09:59:10.192Z,3.60
2019-06-27T10:01:38.879Z,3.22
2019-06-27T10:04:07.576Z,2.80
2019-06-27T10:06:36.200Z,3.52
2019-06-27T10:09:05.941Z,3.02
2019-06-27T10:11:34.354Z,2.20
2019-06-27T10:14:02.870Z,4.53
2019-06-27T10:16:31.328Z,2.80
2019-06-27T10:18:59.830Z,3.05
2019-06-27T10:21:28.268Z,3.95
2019-06-27T10:23:56.709Z,4.45
2019-06-27T10:26:25.173Z,2.83
2019-06-27T10:28:53.676Z,2.20
2019-06-27T10:31:22.109Z,3.00
2019-06-27T10:33:50.567Z,2.60
2019-06-27T10:36:18.998Z,2.33
2019-06-27T10:38:47.443Z,2.60
2019-06-27T10:41:15.874Z,2.20
2019-06-27T10:43:44.330Z,3.00
2019-06-27T10:46:13.013Z,2.05
2019-06-27T10:48:41.539Z,1.92
2019-06-27T10:51:10.231Z,2.30
2019-06-27T10:53:38.675Z,1.90
2019-06-27T10:56:07.165Z,2.20
2019-06-27T10:58:35.628Z,3.20
2019-06-27T11:01:04.391Z,3.90
2019-06-27T11:03:32.828Z,3.47
2019-06-27T11:06:01.312Z,4.10
2019-06-27T11:08:29.824Z,3.87
2019-06-27T11:10:58.303Z,3.83
2019-06-27T11:13:26.731Z,3.70
2019-06-27T11:15:55.191Z,2.37
2019-06-27T11:18:23.947Z,3.00
2019-06-27T11:20:52.697Z,4.50
2019-06-27T11:23:21.418Z,2.60
2019-06-27T11:25:49.942Z,2.90
2019-06-27T11:28:18.367Z,3.12
2019-06-27T11:30:47.080Z,4.00
2019-06-27T11:33:31.276Z,2.58
2019-06-27T11:35:45.945Z,3.33
2019-06-27T11:38:14.375Z,2.50
2019-06-27T11:40:42.817Z,4.12
2019-06-27T11:43:11.262Z,2.90
2019-06-27T11:45:40.061Z,3.02
2019-06-27T11:48:08.604Z,3.42
2019-06-27T11:50:37.108Z,2.65
2019-06-27T11:53:05.555Z,2.30
2019-06-27T11:55:34.075Z,2.30
2019-06-27T11:58:02.514Z,2.52
2019-06-27T12:00:31.015Z,2.20
2019-06-27T12:02:59.499Z,3.50
2019-06-27T12:05:27.935Z,2.98
2019-06-27T12:07:56.373Z,4.17
2019-06-27T12:10:24.826Z,3.15
2019-06-27T12:12:53.332Z,3.10
2019-06-27T12:15:21.788Z,3.55
2019-06-27T12:17:50.231Z,3.10
2019-06-27T12:20:18.710Z,3.87
2019-06-27T12:22:47.262Z,3.10
2019-06-27T12:25:15.931Z,3.40
2019-06-27T12:27:44.375Z,2.02
2019-06-27T12:30:13.059Z,3.65
2019-06-27T12:32:51.847Z,4.17
2019-06-27T12:35:11.791Z,2.15
2019-06-27T12:37:40.291Z,2.98
2019-06-27T12:40:09.201Z,2.60
2019-06-27T12:42:37.659Z,3.02
2019-06-27T12:45:07.892Z,3.83
2019-06-27T12:47:36.347Z,4.50
2019-06-27T12:50:07.525Z,3.90
2019-06-27T12:52:36.033Z,6.00
2019-06-27T12:55:04.707Z,2.85
2019-06-27T12:57:33.416Z,2.80
2019-06-27T13:00:01.875Z,3.55
2019-06-27T13:02:30.625Z,3.90
2019-06-27T13:04:59.062Z,2.83
2019-06-27T13:07:27.772Z,3.02
2019-06-27T13:09:56.218Z,3.70
2019-06-27T13:12:24.732Z,3.75
2019-06-27T13:14:53.427Z,2.10
2019-06-27T13:17:21.866Z,6.30
2019-06-27T13:19:51.842Z,4.37
2019-06-27T13:22:20.267Z,4.97
2019-06-27T13:24:48.971Z,6.42
2019-06-27T13:27:17.406Z,5.67
2019-06-27T13:29:45.847Z,4.95
2019-06-27T13:32:14.536Z,4.22
2019-06-27T13:34:42.989Z,5.00
2019-06-27T13:37:11.635Z,4.40
2019-06-27T13:39:40.384Z,4.55
2019-06-27T13:42:08.819Z,4.50
2019-06-27T13:44:37.263Z,5.67
2019-06-27T13:47:05.703Z,3.77
2019-06-27T13:49:34.225Z,3.80
2019-06-27T13:52:02.658Z,5.37
2019-06-27T13:54:31.183Z,6.30
2019-06-27T13:56:59.612Z,3.83
2019-06-27T13:59:28.056Z,4.17
2019-06-27T14:01:56.608Z,5.08
2019-06-27T14:04:25.201Z,3.08
2019-06-27T14:06:53.956Z,3.90
2019-06-27T14:09:23.872Z,4.28
2019-06-27T14:11:52.676Z,3.47
2019-06-27T14:14:21.170Z,3.75
2019-06-27T14:16:49.605Z,3.85
2019-06-27T14:19:18.397Z,4.28
2019-06-27T14:21:47.746Z,4.35
2019-06-27T14:24:17.614Z,4.87
2019-06-27T14:26:46.183Z,5.10
2019-06-27T14:29:14.618Z,4.62
2019-06-27T14:31:43.087Z,7.47
2019-06-27T14:34:11.588Z,3.10
2019-06-27T14:36:40.031Z,6.20
2019-06-27T14:39:08.476Z,5.05
2019-06-27T14:41:36.958Z,5.20
2019-06-27T14:44:05.445Z,4.20
2019-06-27T14:46:36.451Z,5.58
2019-06-27T14:49:04.139Z,4.30
2019-06-27T14:51:32.583Z,4.70
2019-06-27T14:54:01.027Z,4.75
2019-06-27T14:56:29.466Z,3.70
2019-06-27T14:58:57.899Z,6.65
2019-06-27T15:01:26.360Z,4.85
2019-06-27T15:03:54.874Z,4.50
2019-06-27T15:06:23.315Z,6.30
2019-06-27T15:08:52.027Z,3.52
2019-06-27T15:11:20.543Z,7.10
2019-06-27T15:13:48.982Z,4.10
2019-06-27T15:16:17.683Z,5.30
2019-06-27T15:18:46.388Z,6.92
2019-06-27T15:21:15.162Z,3.83
2019-06-27T15:23:43.856Z,3.95
2019-06-27T15:26:12.475Z,4.10
2019-06-27T15:28:40.904Z,6.15
2019-06-27T15:31:09.619Z,6.72
2019-06-27T15:33:38.055Z,4.20
2019-06-27T15:36:06.752Z,5.08
2019-06-27T15:38:35.451Z,6.08
2019-06-27T15:41:04.188Z,5.62
2019-06-27T15:43:32.639Z,5.40
2019-06-27T15:46:01.081Z,5.70
2019-06-27T15:48:29.792Z,5.67
2019-06-27T15:50:58.488Z,5.60
2019-06-27T15:53:26.940Z,7.25
2019-06-27T15:55:55.402Z,6.37
2019-06-27T15:58:23.973Z,6.97
2019-06-27T16:00:52.434Z,5.67
2019-06-27T16:03:20.949Z,5.97
2019-06-27T16:05:49.390Z,6.10
2019-06-27T16:08:17.831Z,6.42
2019-06-27T16:10:46.307Z,7.30
2019-06-27T16:13:14.758Z,7.50
2019-06-27T16:15:43.188Z,8.25
2019-06-27T16:18:11.940Z,5.80
2019-06-27T16:20:40.434Z,5.90
2019-06-27T16:23:08.884Z,6.30
2019-06-27T16:25:37.385Z,4.60
2019-06-27T16:28:05.840Z,6.47
2019-06-27T16:30:34.269Z,7.55
2019-06-27T16:33:02.720Z,5.62
2019-06-27T16:35:31.406Z,6.20
2019-06-27T16:37:59.851Z,5.30
2019-06-27T16:40:28.284Z,7.65
2019-06-27T16:42:56.727Z,5.78
2019-06-27T16:45:25.375Z,7.53
2019-06-27T16:47:54.085Z,4.85
2019-06-27T16:50:22.519Z,5.33
2019-06-27T16:52:50.969Z,6.53
2019-06-27T16:55:19.471Z,5.62
2019-06-27T16:57:48.108Z,5.40
2019-06-27T17:00:17.532Z,4.07
2019-06-27T17:02:45.956Z,7.83
2019-06-27T17:05:14.381Z,5.08
2019-06-27T17:07:42.836Z,4.50
2019-06-27T17:10:11.873Z,7.83
2019-06-27T17:12:40.303Z,6.03
2019-06-27T17:15:09.175Z,4.60
2019-06-27T17:17:37.680Z,6.70
2019-06-27T17:20:10.223Z,5.50
2019-06-27T17:22:38.652Z,6.33
2019-06-27T17:25:07.841Z,6.50
2019-06-27T17:27:36.296Z,4.70
2019-06-27T17:30:07.697Z,5.40
2019-06-27T17:32:36.189Z,5.85
2019-06-27T17:35:06.067Z,5.85
2019-06-27T17:37:34.557Z,7.85
2019-06-27T17:40:04.046Z,7.05
2019-06-27T17:42:32.472Z,7.35
2019-06-27T17:45:00.936Z,5.12
2019-06-27T17:47:29.436Z,7.15
2019-06-27T17:49:58.006Z,5.13
2019-06-27T17:52:26.501Z,6.72
2019-06-27T17:54:54.943Z,5.67
2019-06-27T17:57:23.377Z,5.67
2019-06-27T17:59:51.833Z,6.00
2019-06-27T18:02:20.265Z,6.00
2019-06-27T18:04:48.704Z,6.37
2019-06-27T18:07:17.138Z,6.00
2019-06-27T18:09:45.571Z,4.95
2019-06-27T18:12:14.013Z,5.58
2019-06-27T18:14:42.442Z,7.33
2019-06-27T18:17:10.914Z,4.95
2019-06-27T18:19:39.402Z,6.40
2019-06-27T18:22:07.848Z,5.80
2019-06-27T18:24:36.275Z,6.50
2019-06-27T18:27:04.713Z,5.80
2019-06-27T18:29:33.138Z,6.20
2019-06-27T18:32:01.630Z,5.13
2019-06-27T18:34:30.100Z,5.80
2019-06-27T18:36:58.553Z,6.42
2019-06-27T18:39:28.849Z,6.37
2019-06-27T18:41:57.323Z,7.62
2019-06-27T18:44:25.746Z,6.60
2019-06-27T18:46:54.203Z,5.58
2019-06-27T18:49:22.648Z,8.10
2019-06-27T18:51:51.093Z,6.50
2019-06-27T18:54:19.536Z,5.75
2019-06-27T18:56:48.146Z,7.40
2019-06-27T18:59:16.579Z,5.60
2019-06-27T19:01:45.284Z,7.30
2019-06-27T19:04:15.422Z,7.03
2019-06-27T19:06:43.868Z,6.30
2019-06-27T19:09:12.636Z,7.92
2019-06-27T19:11:41.083Z,5.70
2019-06-27T19:14:09.521Z,5.20
2019-06-27T19:16:38.026Z,7.28
2019-06-27T19:19:08.116Z,7.50
2019-06-27T19:21:41.107Z,6.28
2019-06-27T19:24:16.883Z,5.58
2019-06-27T19:26:46.706Z,6.20
2019-06-27T19:29:15.130Z,6.20
2019-06-27T19:31:43.563Z,6.92
2019-06-27T19:34:12.011Z,7.33
2019-06-27T19:36:40.444Z,7.40
2019-06-27T19:39:08.893Z,7.45
2019-06-27T19:41:37.328Z,7.00
2019-06-27T19:44:05.789Z,6.80
2019-06-27T19:46:34.280Z,8.43
2019-06-27T19:49:02.766Z,6.20
2019-06-27T19:51:31.198Z,7.22
2019-06-27T19:53:59.643Z,7.08
2019-06-27T19:56:28.070Z,9.07
2019-06-27T19:58:56.519Z,8.35
2019-06-27T20:01:24.950Z,7.15
2019-06-27T20:03:53.647Z,5.60
2019-06-27T20:06:22.079Z,7.92
2019-06-27T20:08:50.782Z,8.63
2019-06-27T20:11:19.470Z,6.22
2019-06-27T20:13:48.157Z,7.70
2019-06-27T20:16:16.843Z,5.30
2019-06-27T20:18:45.534Z,7.70
2019-06-27T20:21:13.963Z,7.20
2019-06-27T20:23:42.398Z,7.25
2019-06-27T20:26:11.083Z,6.20
2019-06-27T20:28:39.529Z,6.22
2019-06-27T20:31:08.206Z,9.90
2019-06-27T20:33:36.725Z,9.13
2019-06-27T20:36:05.302Z,7.00
2019-06-27T20:38:35.166Z,7.78
2019-06-27T20:41:03.909Z,7.47
2019-06-27T20:43:32.341Z,5.92
2019-06-27T20:46:00.785Z,7.85
2019-06-27T20:48:29.279Z,6.60
2019-06-27T20:50:57.715Z,5.40
2019-06-27T20:53:26.152Z,7.40
2019-06-27T20:55:54.595Z,5.00
2019-06-27T20:58:23.007Z,6.50
2019-06-27T21:00:51.788Z,6.92
2019-06-27T21:03:20.486Z,5.35
2019-06-27T21:05:49.174Z,7.40
2019-06-27T21:08:17.613Z,6.25
2019-06-27T21:10:46.054Z,8.35
2019-06-27T21:13:14.503Z,7.22
2019-06-27T21:15:43.001Z,6.28
2019-06-27T21:18:11.748Z,5.10
2019-06-27T21:20:40.198Z,6.40
2019-06-27T21:23:08.900Z,6.75
2019-06-27T21:25:37.590Z,7.77
2019-06-27T21:28:06.026Z,8.65
2019-06-27T21:30:34.457Z,9.00
2019-06-27T21:33:02.872Z,8.35
2019-06-27T21:35:31.557Z,9.35
2019-06-27T21:38:00.973Z,6.62
2019-06-27T21:40:29.657Z,9.60
2019-06-27T21:42:58.098Z,7.03
2019-06-27T21:45:26.788Z,7.12
2019-06-27T21:47:55.457Z,6.17
2019-06-27T21:50:23.893Z,7.12
2019-06-27T21:52:52.326Z,8.20
2019-06-27T21:55:20.831Z,5.95
2019-06-27T21:57:50.175Z,4.85
2019-06-27T22:00:19.046Z,6.43
2019-06-27T22:02:47.493Z,7.55
2019-06-27T22:05:16.140Z,7.90
2019-06-27T22:07:44.579Z,9.65
2019-06-27T22:10:13.298Z,7.87
2019-06-27T22:12:42.008Z,8.20
2019-06-27T22:15:10.643Z,7.62
2019-06-27T22:17:39.153Z,6.57
2019-06-27T22:20:15.219Z,7.45
2019-06-27T22:22:38.750Z,7.97
2019-06-27T22:25:07.659Z,6.03
2019-06-27T22:27:36.095Z,7.45
2019-06-27T22:30:06.560Z,11.25
2019-06-27T22:32:35.258Z,8.08
2019-06-27T22:35:04.657Z,6.43
2019-06-27T22:37:32.662Z,7.70
2019-06-27T22:40:19.014Z,7.40
2019-06-27T22:43:05.354Z,7.37
2019-06-27T22:45:51.701Z,8.50
2019-06-27T22:48:20.381Z,8.63
2019-06-27T22:50:51.082Z,7.22
2019-06-27T22:53:36.605Z,6.80
2019-06-27T22:56:05.220Z,6.50
2019-06-27T22:58:33.703Z,9.03
2019-06-27T23:01:02.467Z,9.85
2019-06-27T23:03:30.916Z,6.37
2019-06-27T23:05:59.359Z,6.35
2019-06-27T23:08:28.059Z,7.40
2019-06-27T23:10:56.498Z,6.80
2019-06-27T23:13:24.944Z,5.95
2019-06-27T23:15:53.386Z,6.78
2019-06-27T23:18:21.823Z,6.60
2019-06-27T23:20:50.251Z,8.03
2019-06-27T23:23:18.710Z,7.03
2019-06-27T23:25:47.147Z,7.10
2019-06-27T23:28:15.594Z,7.87
2019-06-27T23:30:44.019Z,7.10
2019-06-27T23:33:12.467Z,6.72
2019-06-27T23:35:40.978Z,8.53
2019-06-27T23:38:09.406Z,6.97
2019-06-27T23:40:37.854Z,7.03
2019-06-27T23:43:06.369Z,7.75
2019-06-27T23:45:34.807Z,8.58
2019-06-27T23:48:03.232Z,6.22
2019-06-27T23:50:31.758Z,8.50
2019-06-27T23:53:00.181Z,9.10
2019-06-27T23:55:28.626Z,7.20
2019-06-27T23:57:57.059Z,7.75
